Latest Weather Observations for Willis Island

IDQ60801

Issued at 7:32 am EST Tuesday 30 August 2016 (issued every 30 minutes, with the page automatically refreshed every 10 minutes)

About weather observations | Map of weather stations | Latest weather observations for QLD | Other Formats
Station Details ID: 200283 Name: WILLIS ISLAND Lat: -16.29 Lon: 149.97 Height: 9.29 m
Data from the previous 72 hours. | See also: Recent months at Willis Island
Date/Time
EST
Temp
°C
App
Temp
°C
Dew
Point
°C
Rel
Hum
%
Delta-T
°C
Wind Press
QNH
hPa
Press
MSL
hPa
Rain since
9am
mm
Dir  Spd
km/h
Gust
km/h
Spd
kts
Gust
kts
30/07:30am 23.6 21.5 18.9 75 3.0 ESE 28 33 15 18 1019.8 1019.7 0.0
30/07:00am 23.3 20.6 18.4 74 3.1 ESE 30 33 16 18 1019.4 1019.3 0.0
30/06:30am 22.9 17.7 17.4 71 3.4 ESE 41 52 22 28 1019.0 1018.9 0.0
30/06:00am 23.6 19.1 18.2 71 3.4 ESE 39 44 21 24 1018.6 1018.5 0.0
30/05:30am 23.4 17.7 17.6 70 3.6 E 44 52 24 28 1018.2 1018.1 0.0
30/05:00am 23.6 19.2 16.7 65 4.2 ESE 35 39 19 21 1017.8 1017.7 0.0
30/04:30am 23.9 19.6 16.0 61 4.8 ESE 33 39 18 21 1017.5 1017.4 0.0
30/04:00am 23.7 18.9 16.7 65 4.3 E 37 46 20 25 1017.5 1017.4 0.0
30/03:30am 23.8 17.8 15.5 59 5.0 E 41 46 22 25 1017.4 1017.3 0.0
30/03:00am 23.8 17.1 16.0 61 4.7 E 46 52 25 28 1017.4 1017.3 0.0
30/02:30am 23.1 19.3 18.1 73 3.1 ESE 35 44 19 24 1017.6 1017.5 0.0
30/02:00am 22.4 15.2 18.6 79 2.4 E 54 65 29 35 1017.9 1017.8 0.0
30/01:56am 22.2 15.0 18.5 79 2.3 E 54 65 29 35 1017.7 1017.6 0.0
30/01:30am 23.2 18.6 17.9 72 3.3 E 39 56 21 30 1018.0 1017.9 0.0
30/01:27am 22.9 19.1 18.1 74 3.0 E 35 56 19 30 1017.9 1017.8 0.0
30/01:00am 22.9 19.6 18.3 75 2.9 ESE 33 39 18 21 1018.2 1018.1 0.0
30/12:30am 22.2 16.3 19.0 82 2.0 ESE 48 56 26 30 1018.7 1018.6 0.0
30/12:00am 23.7 19.9 17.2 67 4.0 E 33 43 18 23 1018.9 1018.8 0.0
 
Date/Time
EST
Temp
°C
App
Temp
°C
Dew
Point
°C
Rel
Hum
%
Delta-T
°C
Wind Press
QNH
hPa
Press
MSL
hPa
Rain since
9am
mm
Dir  Spd
km/h
Gust
km/h
Spd
kts
Gust
kts
29/11:30pm 23.8 19.8 16.6 64 4.4 ESE 33 41 18 22 1019.2 1019.1 0.0
29/11:00pm 23.6 17.5 14.0 55 5.6 ESE 39 46 21 25 1019.4 1019.3 0.0
29/10:30pm 23.6 19.0 16.2 63 4.5 ESE 35 41 19 22 1019.5 1019.4 0.0
29/10:00pm 23.5 17.7 15.9 62 4.6 ESE 41 48 22 26 1019.5 1019.4 0.0
29/09:30pm 23.5 17.4 16.3 64 4.4 ESE 43 50 23 27 1019.5 1019.4 0.0
29/09:00pm 23.7 18.6 16.7 65 4.3 ESE 39 46 21 25 1019.4 1019.3 0.0
29/08:30pm 23.7 18.7 17.0 66 4.1 SE 39 46 21 25 1019.2 1019.1 0.0
29/08:00pm 23.7 18.2 16.7 65 4.3 ESE 41 46 22 25 1019.0 1018.9 0.0
29/07:30pm 23.7 18.8 17.2 67 4.0 ESE 39 50 21 27 1018.7 1018.6 0.0
29/07:00pm 23.7 17.8 17.2 67 4.0 SE 44 52 24 28 1018.3 1018.2 0.0
29/06:30pm 23.8 19.2 17.9 69 3.7 ESE 39 44 21 24 1018.1 1018.0 0.0
29/06:00pm 23.9 19.3 18.0 69 3.7 SE 39 46 21 25 1017.9 1017.8 0.0
29/05:30pm 23.8 19.2 17.9 69 3.7 SE 39 44 21 24 1017.7 1017.6 0.0
29/05:00pm 24.0 19.6 17.6 67 4.0 SE 37 46 20 25 1017.5 1017.4 0.0
29/04:30pm 24.1 19.2 17.3 65 4.2 SE 39 46 21 25 1017.4 1017.3 0.0
29/04:00pm 24.7 20.4 17.8 65 4.3 ESE 37 43 20 23 1017.1 1017.0 0.0
29/03:30pm 24.6 19.7 17.2 63 4.6 SE 39 46 21 25 1017.0 1016.9 0.0
29/03:00pm 24.9 20.0 17.3 62 4.7 ESE 39 46 21 25 1017.0 1016.9 0.0
29/02:30pm 25.3 20.6 17.8 63 4.7 ESE 39 46 21 25 1017.1 1017.0 0.0
29/02:00pm 25.1 20.7 17.6 63 4.7 ESE 37 44 20 24 1017.4 1017.3 0.0
29/01:30pm 25.3 20.4 17.3 61 5.0 SE 39 46 21 25 1017.7 1017.6 0.0
29/01:00pm 25.2 20.5 17.7 63 4.7 ESE 39 44 21 24 1017.9 1017.8 0.0
29/12:30pm 24.9 20.2 16.8 60 5.0 SE 37 43 20 23 1018.3 1018.2 0.0
29/12:00pm 25.9 21.4 17.4 59 5.3 ESE 37 46 20 25 1018.6 1018.5 0.0
29/11:30am 25.3 21.1 17.2 61 5.0 ESE 35 41 19 22 1018.9 1018.8 0.0
29/11:00am 25.2 20.6 16.0 56 5.6 ESE 35 41 19 22 1019.4 1019.3 0.0
29/10:30am 25.2 20.3 15.2 54 6.0 ESE 35 43 19 23 1019.6 1019.5 0.0
29/10:00am 25.1 20.0 15.9 56 5.6 ESE 37 44 20 24 1020.0 1019.9 0.0
29/09:30am 25.1 19.7 15.9 56 5.6 ESE 39 44 21 24 1020.2 1020.1 0.0
29/09:00am 24.8 19.7 15.7 57 5.5 ESE 37 43 20 23 1020.2 1020.1 0.0
29/08:30am 24.6 19.6 15.1 55 5.7 ESE 35 41 19 22 1019.9 1019.8 0.0
29/08:00am 24.1 18.2 14.7 55 5.6 ESE 39 46 21 25 1019.6 1019.5 0.0
29/07:30am 23.9 18.8 15.8 60 4.9 ESE 37 44 20 24 1019.2 1019.1 0.0
29/07:00am 23.5 18.6 14.3 56 5.4 ESE 33 39 18 21 1018.8 1018.7 0.0
29/06:30am 23.3 17.4 14.7 58 5.1 ESE 39 46 21 25 1018.4 1018.3 0.0
29/06:00am 23.0 17.6 15.1 61 4.7 ESE 37 44 20 24 1018.0 1017.9 0.0
29/05:30am 23.0 17.6 14.9 60 4.8 ESE 37 44 20 24 1017.8 1017.7 0.0
29/05:00am 22.8 17.9 15.4 63 4.4 ESE 35 43 19 23 1017.6 1017.5 0.0
29/04:30am 22.7 17.8 15.3 63 4.4 ESE 35 43 19 23 1017.4 1017.3 0.0
29/04:00am 22.9 17.3 14.4 58 5.0 ESE 37 43 20 23 1017.3 1017.2 0.0
29/03:30am 22.6 18.2 15.6 64 4.2 ESE 33 43 18 23 1017.2 1017.1 0.0
29/03:00am 22.8 17.2 14.5 59 4.9 ESE 37 46 20 25 1017.4 1017.3 0.0
29/02:30am 22.7 17.3 14.9 61 4.6 ESE 37 43 20 23 1017.5 1017.4 0.0
29/02:00am 22.9 18.3 15.2 62 4.6 ESE 33 41 18 22 1018.0 1017.9 0.0
29/01:30am 22.7 16.8 13.7 56 5.2 ESE 37 43 20 23 1018.0 1017.9 0.0
29/01:00am 22.8 17.2 14.5 59 4.9 ESE 37 43 20 23 1018.3 1018.2 0.0
29/12:30am 22.6 17.7 14.2 59 4.9 ESE 33 39 18 21 1018.3 1018.2 0.0
29/12:00am 22.9 18.7 15.7 64 4.3 ESE 32 37 17 20 1018.4 1018.3 0.0
 
Date/Time
EST
Temp
°C
App
Temp
°C
Dew
Point
°C
Rel
Hum
%
Delta-T
°C
Wind Press
QNH
hPa
Press
MSL
hPa
Rain since
9am
mm
Dir  Spd
km/h
Gust
km/h
Spd
kts
Gust
kts
28/11:30pm 22.7 17.0 14.1 58 5.0 ESE 37 44 20 24 1018.8 1018.7 0.0
28/11:00pm 22.5 16.8 14.1 59 4.9 ESE 37 44 20 24 1018.9 1018.8 0.0
28/10:30pm 22.6 17.1 13.6 56 5.2 ESE 35 46 19 25 1018.9 1018.8 0.0
28/10:00pm 22.5 17.5 15.1 63 4.4 ESE 35 41 19 22 1018.9 1018.8 0.0
28/09:30pm 22.5 17.1 14.9 62 4.5 ESE 37 44 20 24 1019.0 1018.9 0.0
28/09:00pm 22.5 17.5 15.1 63 4.4 SE 35 41 19 22 1019.1 1019.0 0.0
28/08:30pm 22.3 17.3 15.0 63 4.3 SE 35 43 19 23 1018.9 1018.8 0.0
28/08:00pm 22.5 17.7 15.7 65 4.1 ESE 35 41 19 22 1018.6 1018.5 0.0
28/07:30pm 22.4 17.8 15.2 63 4.3 ESE 33 41 18 22 1018.3 1018.2 0.0
28/07:00pm 22.2 17.5 14.9 63 4.3 ESE 33 39 18 21 1018.0 1017.9 0.0
28/06:30pm 22.2 17.1 15.7 66 3.9 SE 37 43 20 23 1017.6 1017.5 0.0
28/06:00pm 22.1 17.5 15.2 65 4.1 SE 33 43 18 23 1017.4 1017.3 0.0
28/05:30pm 22.2 17.3 15.3 65 4.1 SE 35 43 19 23 1017.3 1017.2 0.0
28/05:00pm 22.4 17.5 15.4 64 4.2 SE 35 43 19 23 1017.3 1017.2 0.0
28/04:30pm 22.6 17.7 15.2 63 4.4 SE 35 43 19 23 1017.1 1017.0 0.0
28/04:00pm 22.8 17.5 14.1 58 5.1 SE 35 43 19 23 1017.0 1016.9 0.0
28/03:30pm 22.9 18.2 14.8 60 4.8 SE 33 44 18 24 1016.8 1016.7 0.0
28/03:00pm 23.3 18.8 14.9 59 5.0 SE 32 39 17 21 1017.0 1016.9 0.0
28/02:30pm 23.0 17.7 14.1 57 5.2 SE 35 41 19 22 1017.3 1017.2 0.0
28/02:00pm 23.6 18.8 14.6 57 5.3 SSE 33 39 18 21 1017.6 1017.5 0.0
28/01:30pm 23.9 19.6 15.4 59 5.1 SE 32 37 17 20 1018.0 1017.9 0.0
28/01:00pm 24.3 20.0 15.3 57 5.4 SE 32 35 17 19 1018.4 1018.3 0.0
28/12:30pm 24.2 19.7 14.8 55 5.6 SSE 32 39 17 21 1018.8 1018.7 0.0
28/12:00pm 23.9 19.2 14.8 56 5.4 SSE 33 39 18 21 1019.4 1019.3 0.0
28/11:30am 24.3 20.0 15.3 57 5.4 SSE 32 37 17 20 1019.6 1019.5 0.0
28/11:00am 23.4 18.3 14.8 58 5.1 SSE 35 41 19 22 1019.9 1019.8 0.0
28/10:30am 23.9 18.6 15.2 58 5.2 SSE 37 43 20 23 1020.1 1020.0 0.0
28/10:00am 23.4 18.1 15.4 60 4.8 SE 37 43 20 23 1020.4 1020.3 0.0
28/09:30am 24.0 19.2 15.7 59 5.0 SE 35 43 19 23 1020.5 1020.4 0.0
28/09:00am 23.5 18.7 15.5 60 4.8 SE 35 41 19 22 1020.6 1020.5 0.0
28/08:30am 23.3 18.0 14.1 56 5.4 SE 35 41 19 22 1020.5 1020.4 0.0
28/08:00am 22.9 17.4 14.8 60 4.8 SE 37 43 20 23 1020.3 1020.2 0.0
28/07:30am 22.7 17.6 14.7 60 4.7 SE 35 43 19 23 1019.9 1019.8 0.0
28/07:00am 22.2 17.1 15.9 67 3.8 SSE 37 44 20 24 1019.6 1019.5 0.0
28/06:30am 22.2 17.4 15.5 66 4.0 SE 35 41 19 22 1019.3 1019.2 0.0
28/06:00am 22.0 16.6 15.1 65 4.1 SE 37 44 20 24 1018.9 1018.8 0.0
28/05:30am 22.1 16.9 15.6 66 3.9 SSE 37 43 20 23 1018.5 1018.4 0.0
28/05:00am 22.1 17.8 15.8 67 3.8 SE 33 39 18 21 1018.2 1018.1 0.0
28/04:30am 22.1 17.2 16.3 69 3.5 SE 37 41 20 22 1017.9 1017.8 0.0
28/04:00am 22.1 17.3 16.7 71 3.3 SE 37 43 20 23 1017.7 1017.6 0.0
28/03:30am 22.2 17.6 17.0 72 3.2 SE 37 43 20 23 1017.6 1017.5 0.0
28/03:00am 22.3 18.2 17.3 73 3.1 SE 35 41 19 22 1017.8 1017.7 0.0
28/02:30am 22.5 18.5 17.5 73 3.1 SE 35 41 19 22 1018.0 1017.9 0.0
28/02:00am 22.3 17.6 16.9 71 3.3 SE 37 43 20 23 1018.1 1018.0 0.0
28/01:30am 22.4 17.4 17.0 71 3.3 SE 39 44 21 24 1018.1 1018.0 0.0
28/01:00am 22.4 17.9 17.4 73 3.1 SSE 37 43 20 23 1018.4 1018.3 0.0
28/12:30am 22.6 18.5 17.4 72 3.2 SSE 35 43 19 23 1018.7 1018.6 0.0
28/12:00am 22.8 18.0 17.6 72 3.2 SSE 39 43 21 23 1018.9 1018.8 0.0
 
Date/Time
EST
Temp
°C
App
Temp
°C
Dew
Point
°C
Rel
Hum
%
Delta-T
°C
Wind Press
QNH
hPa
Press
MSL
hPa
Rain since
9am
mm
Dir  Spd
km/h
Gust
km/h
Spd
kts
Gust
kts
27/11:30pm 23.0 18.4 17.9 73 3.2 SSE 39 46 21 25 1019.2 1019.1 0.0
27/11:00pm 22.9 19.5 17.7 72 3.2 SE 32 37 17 20 1019.3 1019.2 0.0
27/10:30pm 22.8 19.1 16.9 69 3.6 SE 32 37 17 20 1019.4 1019.3 0.0
27/10:00pm 23.0 18.9 17.3 70 3.5 SE 35 39 19 21 1019.5 1019.4 0.0
27/09:30pm 22.9 19.0 17.0 69 3.6 SSE 33 41 18 22 1019.4 1019.3 0.0
27/09:00pm 22.8 18.4 17.5 72 3.3 SE 37 43 20 23 1019.0 1018.9 0.0
27/08:30pm 23.0 18.7 17.9 73 3.2 SE 37 44 20 24 1018.9 1018.8 0.0
27/08:00pm 23.0 18.4 17.9 73 3.2 SE 39 44 21 24 1018.7 1018.6 0.0
27/07:30pm 23.3 18.6 17.8 71 3.4 SSE 39 44 21 24 1018.7 1018.6 0.0
27/07:00pm 23.3 19.2 18.2 73 3.2 SSE 37 46 20 25 1018.3 1018.2 0.0
27/06:30pm 23.2 19.0 18.1 73 3.2 SSE 37 44 20 24 1017.9 1017.8 0.0
27/06:00pm 23.3 19.8 18.7 75 2.9 SE 35 41 19 22 1017.5 1017.4 0.0
27/05:30pm 23.0 18.6 17.5 71 3.4 SE 37 44 20 24 1017.1 1017.0 0.0
27/05:00pm 23.6 19.5 18.3 72 3.3 SE 37 44 20 24 1016.8 1016.7 0.0
27/04:30pm 23.8 19.7 18.2 71 3.5 SE 37 43 20 23 1016.5 1016.4 0.0
27/04:00pm 23.7 19.5 18.1 71 3.5 SE 37 44 20 24 1016.2 1016.1 0.0
27/03:30pm 24.0 19.4 18.1 69 3.7 SE 39 46 21 25 1016.0 1015.9 0.0
27/03:00pm 24.3 19.8 18.3 69 3.8 SE 39 46 21 25 1015.9 1015.8 0.0
27/02:30pm 24.2 19.7 18.3 69 3.7 SSE 39 46 21 25 1016.0 1015.9 0.0
27/02:00pm 24.4 20.0 18.4 69 3.8 SE 39 46 21 25 1016.0 1015.9 0.0
27/01:30pm 24.9 19.9 18.8 69 3.9 SE 43 48 23 26 1016.4 1016.3 0.0
27/01:00pm 24.7 19.4 18.5 68 3.9 SSE 44 52 24 28 1016.9 1016.8 0.0
27/12:30pm 24.3 19.4 19.0 72 3.4 SSE 43 48 23 26 1017.2 1017.1 0.0
27/12:00pm 23.8 18.6 18.9 74 3.1 SSE 44 52 24 28 1017.5 1017.4 0.0
27/11:30am 23.9 18.7 18.7 72 3.3 SSE 44 54 24 29 1017.7 1017.6 0.0
27/11:00am 24.4 19.2 18.7 70 3.6 SSE 44 52 24 28 1017.9 1017.8 0.0
27/10:30am 24.4 19.4 18.9 71 3.5 SSE 43 48 23 26 1018.1 1018.0 0.0
27/10:00am 24.7 20.1 19.6 73 3.3 SSE 43 52 23 28 1018.0 1017.9 0.0
27/09:30am 24.5 19.5 19.3 73 3.3 SSE 44 52 24 28 1018.1 1018.0 0.0
27/09:00am 24.1 18.8 19.4 75 3.0 SSE 46 54 25 29 1018.0 1017.9 0.0
27/08:30am 24.2 20.0 19.7 76 2.9 SSE 41 46 22 25 1018.0 1017.9 0.0
27/08:00am 23.8 19.4 20.2 80 2.3 SSE 43 50 23 27 1017.7 1017.6 0.0

Other Formats:

Comma delimited format used in spreadsheet applications
http://www.bom.gov.au/fwo/IDQ60801/IDQ60801.94299.axf

JavaScript Object Notation format (JSON) in row-major order
http://www.bom.gov.au/fwo/IDQ60801/IDQ60801.94299.json